sensor_id;sensor_type;location;lat;lon;timestamp;temperature;humidity
23120;DHT22;11729;50.836;4.330;2023-11-19T00:01:40;14.40;99.90
23120;DHT22;11729;50.836;4.330;2023-11-19T00:04:06;14.40;99.90
23120;DHT22;11729;50.836;4.330;2023-11-19T00:06:31;14.40;99.90
23120;DHT22;11729;50.836;4.330;2023-11-19T00:08:57;14.30;99.90
23120;DHT22;11729;50.836;4.330;2023-11-19T00:11:23;14.40;99.90
23120;DHT22;11729;50.836;4.330;2023-11-19T00:13:48;14.40;99.90
23120;DHT22;11729;50.836;4.330;2023-11-19T00:16:14;14.50;99.90
23120;DHT22;11729;50.836;4.330;2023-11-19T00:18:41;14.60;99.90
23120;DHT22;11729;50.836;4.330;2023-11-19T00:21:07;14.60;99.90
23120;DHT22;11729;50.836;4.330;2023-11-19T00:23:33;14.60;99.90
23120;DHT22;11729;50.836;4.330;2023-11-19T00:25:59;14.50;99.90
23120;DHT22;11729;50.836;4.330;2023-11-19T00:28:25;14.50;99.90
23120;DHT22;11729;50.836;4.330;2023-11-19T00:30:50;14.40;99.90
23120;DHT22;11729;50.836;4.330;2023-11-19T00:33:16;14.40;99.90
23120;DHT22;11729;50.836;4.330;2023-11-19T00:35:42;14.40;99.90
23120;DHT22;11729;50.836;4.330;2023-11-19T00:38:07;14.50;99.90
23120;DHT22;11729;50.836;4.330;2023-11-19T00:40:33;14.50;99.90
23120;DHT22;11729;50.836;4.330;2023-11-19T00:42:58;14.50;99.90
23120;DHT22;11729;50.836;4.330;2023-11-19T00:45:24;14.50;99.90
23120;DHT22;11729;50.836;4.330;2023-11-19T00:47:50;14.50;99.90
23120;DHT22;11729;50.836;4.330;2023-11-19T00:50:16;14.50;99.90
23120;DHT22;11729;50.836;4.330;2023-11-19T00:52:42;14.50;99.90
23120;DHT22;11729;50.836;4.330;2023-11-19T00:55:08;14.50;99.90
23120;DHT22;11729;50.836;4.330;2023-11-19T00:57:34;14.40;99.90
23120;DHT22;11729;50.836;4.330;2023-11-19T01:00:01;14.40;99.90
23120;DHT22;11729;50.836;4.330;2023-11-19T01:02:32;14.50;99.90
23120;DHT22;11729;50.836;4.330;2023-11-19T01:04:57;14.50;99.90
23120;DHT22;11729;50.836;4.330;2023-11-19T01:07:23;14.50;99.90
23120;DHT22;11729;50.836;4.330;2023-11-19T01:09:49;14.40;99.90
23120;DHT22;11729;50.836;4.330;2023-11-19T01:12:16;14.30;99.90
23120;DHT22;11729;50.836;4.330;2023-11-19T01:14:41;14.40;99.90
23120;DHT22;11729;50.836;4.330;2023-11-19T01:17:07;14.40;99.90
23120;DHT22;11729;50.836;4.330;2023-11-19T01:19:34;14.50;99.90
23120;DHT22;11729;50.836;4.330;2023-11-19T01:22:00;14.50;99.90
23120;DHT22;11729;50.836;4.330;2023-11-19T01:24:25;14.50;99.90
23120;DHT22;11729;50.836;4.330;2023-11-19T01:26:54;14.60;99.90
23120;DHT22;11729;50.836;4.330;2023-11-19T01:29:19;14.50;99.90
23120;DHT22;11729;50.836;4.330;2023-11-19T01:31:46;14.50;99.90
23120;DHT22;11729;50.836;4.330;2023-11-19T01:34:12;14.50;99.90
23120;DHT22;11729;50.836;4.330;2023-11-19T01:36:38;14.50;99.90
23120;DHT22;11729;50.836;4.330;2023-11-19T01:39:04;14.60;99.90
23120;DHT22;11729;50.836;4.330;2023-11-19T01:41:36;14.40;99.90
23120;DHT22;11729;50.836;4.330;2023-11-19T01:44:05;14.40;99.90
23120;DHT22;11729;50.836;4.330;2023-11-19T01:46:32;14.40;99.90
23120;DHT22;11729;50.836;4.330;2023-11-19T01:48:58;14.40;99.90
23120;DHT22;11729;50.836;4.330;2023-11-19T01:51:24;14.30;99.90
23120;DHT22;11729;50.836;4.330;2023-11-19T01:53:50;14.40;99.90
23120;DHT22;11729;50.836;4.330;2023-11-19T01:56:16;14.30;99.90
23120;DHT22;11729;50.836;4.330;2023-11-19T01:58:44;14.20;99.90
23120;DHT22;11729;50.836;4.330;2023-11-19T02:01:11;14.20;99.90
23120;DHT22;11729;50.836;4.330;2023-11-19T02:03:38;14.30;99.90
23120;DHT22;11729;50.836;4.330;2023-11-19T02:06:04;14.30;99.90
23120;DHT22;11729;50.836;4.330;2023-11-19T02:08:30;14.20;99.90
23120;DHT22;11729;50.836;4.330;2023-11-19T02:10:56;14.30;99.90
23120;DHT22;11729;50.836;4.330;2023-11-19T02:13:25;14.20;99.90
23120;DHT22;11729;50.836;4.330;2023-11-19T02:15:52;14.30;99.90
23120;DHT22;11729;50.836;4.330;2023-11-19T02:18:24;14.20;99.90
23120;DHT22;11729;50.836;4.330;2023-11-19T02:20:56;14.10;99.90
23120;DHT22;11729;50.836;4.330;2023-11-19T02:23:23;14.10;99.90
23120;DHT22;11729;50.836;4.330;2023-11-19T02:28:24;14.10;99.90
23120;DHT22;11729;50.836;4.330;2023-11-19T02:30:49;14.00;99.90
23120;DHT22;11729;50.836;4.330;2023-11-19T02:33:15;14.00;99.90
23120;DHT22;11729;50.836;4.330;2023-11-19T02:35:41;14.00;99.90
23120;DHT22;11729;50.836;4.330;2023-11-19T02:38:07;13.90;99.90
23120;DHT22;11729;50.836;4.330;2023-11-19T02:40:33;13.90;99.90
23120;DHT22;11729;50.836;4.330;2023-11-19T02:42:59;14.00;99.90
23120;DHT22;11729;50.836;4.330;2023-11-19T02:45:25;13.90;99.90
23120;DHT22;11729;50.836;4.330;2023-11-19T02:47:52;13.90;99.90
23120;DHT22;11729;50.836;4.330;2023-11-19T02:50:19;13.90;99.90
23120;DHT22;11729;50.836;4.330;2023-11-19T02:52:52;13.90;99.90
23120;DHT22;11729;50.836;4.330;2023-11-19T02:55:18;14.00;99.90
23120;DHT22;11729;50.836;4.330;2023-11-19T02:57:45;14.00;99.90
23120;DHT22;11729;50.836;4.330;2023-11-19T03:00:18;14.00;99.90
23120;DHT22;11729;50.836;4.330;2023-11-19T03:02:45;14.00;99.90
23120;DHT22;11729;50.836;4.330;2023-11-19T03:05:19;14.00;99.90
23120;DHT22;11729;50.836;4.330;2023-11-19T03:07:45;13.90;99.90
23120;DHT22;11729;50.836;4.330;2023-11-19T03:10:11;13.80;99.90
23120;DHT22;11729;50.836;4.330;2023-11-19T03:12:41;13.80;99.90
23120;DHT22;11729;50.836;4.330;2023-11-19T03:15:07;13.90;99.90
23120;DHT22;11729;50.836;4.330;2023-11-19T03:17:38;13.90;99.90
23120;DHT22;11729;50.836;4.330;2023-11-19T03:20:07;13.90;99.90
23120;DHT22;11729;50.836;4.330;2023-11-19T03:22:37;13.80;99.90
23120;DHT22;11729;50.836;4.330;2023-11-19T03:25:03;13.80;99.90
23120;DHT22;11729;50.836;4.330;2023-11-19T03:27:29;13.70;99.90
23120;DHT22;11729;50.836;4.330;2023-11-19T03:29:55;13.70;99.90
23120;DHT22;11729;50.836;4.330;2023-11-19T03:32:20;13.60;99.90
23120;DHT22;11729;50.836;4.330;2023-11-19T03:34:46;13.60;99.90
23120;DHT22;11729;50.836;4.330;2023-11-19T03:37:12;13.50;99.90
23120;DHT22;11729;50.836;4.330;2023-11-19T03:39:42;13.50;99.90
23120;DHT22;11729;50.836;4.330;2023-11-19T03:42:07;13.50;99.90
23120;DHT22;11729;50.836;4.330;2023-11-19T03:44:33;13.50;99.90
23120;DHT22;11729;50.836;4.330;2023-11-19T03:46:58;13.40;99.90
23120;DHT22;11729;50.836;4.330;2023-11-19T03:49:24;13.40;99.90
23120;DHT22;11729;50.836;4.330;2023-11-19T03:51:50;13.30;99.90
23120;DHT22;11729;50.836;4.330;2023-11-19T03:54:16;13.30;99.90
23120;DHT22;11729;50.836;4.330;2023-11-19T03:56:42;13.30;99.90
23120;DHT22;11729;50.836;4.330;2023-11-19T03:59:07;13.20;99.90
23120;DHT22;11729;50.836;4.330;2023-11-19T04:01:35;13.20;99.90
23120;DHT22;11729;50.836;4.330;2023-11-19T04:04:02;13.10;99.90
23120;DHT22;11729;50.836;4.330;2023-11-19T04:06:28;13.20;99.90
23120;DHT22;11729;50.836;4.330;2023-11-19T04:08:54;13.20;99.90
23120;DHT22;11729;50.836;4.330;2023-11-19T04:11:19;13.30;99.90
23120;DHT22;11729;50.836;4.330;2023-11-19T04:13:45;13.40;99.90
23120;DHT22;11729;50.836;4.330;2023-11-19T04:16:11;13.40;99.90
23120;DHT22;11729;50.836;4.330;2023-11-19T04:18:36;13.30;99.90
23120;DHT22;11729;50.836;4.330;2023-11-19T04:21:05;13.30;99.90
23120;DHT22;11729;50.836;4.330;2023-11-19T04:23:30;13.20;99.90
23120;DHT22;11729;50.836;4.330;2023-11-19T04:25:56;13.20;99.90
23120;DHT22;11729;50.836;4.330;2023-11-19T04:28:22;13.20;99.90
23120;DHT22;11729;50.836;4.330;2023-11-19T04:30:48;13.20;99.90
23120;DHT22;11729;50.836;4.330;2023-11-19T04:33:13;13.20;99.90
23120;DHT22;11729;50.836;4.330;2023-11-19T04:35:40;13.00;99.90
23120;DHT22;11729;50.836;4.330;2023-11-19T04:38:06;13.00;99.90
23120;DHT22;11729;50.836;4.330;2023-11-19T04:40:32;13.10;99.90
23120;DHT22;11729;50.836;4.330;2023-11-19T04:42:59;13.00;99.90
23120;DHT22;11729;50.836;4.330;2023-11-19T04:45:24;13.00;99.90
23120;DHT22;11729;50.836;4.330;2023-11-19T04:47:50;13.00;99.90
23120;DHT22;11729;50.836;4.330;2023-11-19T04:50:16;13.10;99.90
23120;DHT22;11729;50.836;4.330;2023-11-19T04:52:41;13.20;99.90
23120;DHT22;11729;50.836;4.330;2023-11-19T04:55:12;13.10;99.90
23120;DHT22;11729;50.836;4.330;2023-11-19T04:57:37;13.20;99.90
23120;DHT22;11729;50.836;4.330;2023-11-19T05:00:04;13.20;99.90
23120;DHT22;11729;50.836;4.330;2023-11-19T05:02:30;13.30;99.90
23120;DHT22;11729;50.836;4.330;2023-11-19T05:04:57;13.30;99.90
23120;DHT22;11729;50.836;4.330;2023-11-19T05:07:22;13.30;99.90
23120;DHT22;11729;50.836;4.330;2023-11-19T05:09:48;13.40;99.90
23120;DHT22;11729;50.836;4.330;2023-11-19T05:12:13;13.30;99.90
23120;DHT22;11729;50.836;4.330;2023-11-19T05:14:39;13.30;99.90
23120;DHT22;11729;50.836;4.330;2023-11-19T05:17:05;13.30;99.90
23120;DHT22;11729;50.836;4.330;2023-11-19T05:19:30;13.20;99.90
23120;DHT22;11729;50.836;4.330;2023-11-19T05:21:56;13.10;99.90
23120;DHT22;11729;50.836;4.330;2023-11-19T05:24:22;12.90;99.90
23120;DHT22;11729;50.836;4.330;2023-11-19T05:26:48;12.80;99.90
23120;DHT22;11729;50.836;4.330;2023-11-19T05:29:16;12.90;99.90
23120;DHT22;11729;50.836;4.330;2023-11-19T05:31:42;12.90;99.90
23120;DHT22;11729;50.836;4.330;2023-11-19T05:34:07;12.90;99.90
23120;DHT22;11729;50.836;4.330;2023-11-19T05:36:33;12.90;99.90
23120;DHT22;11729;50.836;4.330;2023-11-19T05:38:59;12.90;99.90
23120;DHT22;11729;50.836;4.330;2023-11-19T05:41:24;12.90;99.90
23120;DHT22;11729;50.836;4.330;2023-11-19T05:43:50;12.90;99.90
23120;DHT22;11729;50.836;4.330;2023-11-19T05:46:16;12.90;99.90
23120;DHT22;11729;50.836;4.330;2023-11-19T05:48:42;12.90;99.90
23120;DHT22;11729;50.836;4.330;2023-11-19T05:51:08;12.80;99.90
23120;DHT22;11729;50.836;4.330;2023-11-19T05:53:33;12.80;99.90
23120;DHT22;11729;50.836;4.330;2023-11-19T05:55:59;12.80;99.90
23120;DHT22;11729;50.836;4.330;2023-11-19T05:58:29;12.80;99.90
23120;DHT22;11729;50.836;4.330;2023-11-19T06:00:56;12.70;99.90
23120;DHT22;11729;50.836;4.330;2023-11-19T06:03:22;12.80;99.90
23120;DHT22;11729;50.836;4.330;2023-11-19T06:05:49;12.80;99.90
23120;DHT22;11729;50.836;4.330;2023-11-19T06:08:15;12.70;99.90
23120;DHT22;11729;50.836;4.330;2023-11-19T06:10:42;12.60;99.90
23120;DHT22;11729;50.836;4.330;2023-11-19T06:13:09;12.70;99.90
23120;DHT22;11729;50.836;4.330;2023-11-19T06:15:36;12.80;99.90
23120;DHT22;11729;50.836;4.330;2023-11-19T06:18:02;12.70;99.90
23120;DHT22;11729;50.836;4.330;2023-11-19T06:20:32;12.70;99.90
23120;DHT22;11729;50.836;4.330;2023-11-19T06:22:59;12.80;99.90
23120;DHT22;11729;50.836;4.330;2023-11-19T06:25:25;12.70;99.90
23120;DHT22;11729;50.836;4.330;2023-11-19T06:27:51;12.50;99.90
23120;DHT22;11729;50.836;4.330;2023-11-19T06:30:17;12.50;99.90
23120;DHT22;11729;50.836;4.330;2023-11-19T06:32:43;12.50;99.90
23120;DHT22;11729;50.836;4.330;2023-11-19T06:35:08;12.50;99.90
23120;DHT22;11729;50.836;4.330;2023-11-19T06:37:35;12.50;99.90
23120;DHT22;11729;50.836;4.330;2023-11-19T06:40:02;12.50;99.90
23120;DHT22;11729;50.836;4.330;2023-11-19T06:42:28;12.40;99.90
23120;DHT22;11729;50.836;4.330;2023-11-19T06:44:54;12.60;99.90
23120;DHT22;11729;50.836;4.330;2023-11-19T06:47:25;12.60;99.90
23120;DHT22;11729;50.836;4.330;2023-11-19T06:49:51;12.70;99.90
23120;DHT22;11729;50.836;4.330;2023-11-19T06:52:16;12.70;99.90
23120;DHT22;11729;50.836;4.330;2023-11-19T06:54:42;12.80;99.90
23120;DHT22;11729;50.836;4.330;2023-11-19T06:57:08;12.70;99.90
23120;DHT22;11729;50.836;4.330;2023-11-19T06:59:34;12.70;99.90
23120;DHT22;11729;50.836;4.330;2023-11-19T07:02:00;12.60;99.90
23120;DHT22;11729;50.836;4.330;2023-11-19T07:04:26;12.50;99.90
23120;DHT22;11729;50.836;4.330;2023-11-19T07:06:51;12.50;99.90
23120;DHT22;11729;50.836;4.330;2023-11-19T07:09:18;12.50;99.90
23120;DHT22;11729;50.836;4.330;2023-11-19T07:11:44;12.60;99.90
23120;DHT22;11729;50.836;4.330;2023-11-19T07:14:12;12.60;99.90
23120;DHT22;11729;50.836;4.330;2023-11-19T07:16:38;12.50;99.90
23120;DHT22;11729;50.836;4.330;2023-11-19T07:19:07;12.60;99.90
23120;DHT22;11729;50.836;4.330;2023-11-19T07:21:33;12.70;99.90
23120;DHT22;11729;50.836;4.330;2023-11-19T07:23:59;12.70;99.90
23120;DHT22;11729;50.836;4.330;2023-11-19T07:26:25;12.60;99.90
23120;DHT22;11729;50.836;4.330;2023-11-19T07:28:50;12.70;99.90
23120;DHT22;11729;50.836;4.330;2023-11-19T07:31:17;12.80;99.90
23120;DHT22;11729;50.836;4.330;2023-11-19T07:33:47;12.90;99.90
23120;DHT22;11729;50.836;4.330;2023-11-19T07:36:14;12.90;99.90
23120;DHT22;11729;50.836;4.330;2023-11-19T07:38:39;12.80;99.90
23120;DHT22;11729;50.836;4.330;2023-11-19T07:41:05;12.80;99.90
23120;DHT22;11729;50.836;4.330;2023-11-19T07:43:32;12.90;99.90
23120;DHT22;11729;50.836;4.330;2023-11-19T07:45:58;12.90;99.90
23120;DHT22;11729;50.836;4.330;2023-11-19T07:48:27;12.90;99.90
23120;DHT22;11729;50.836;4.330;2023-11-19T07:50:53;13.00;99.90
23120;DHT22;11729;50.836;4.330;2023-11-19T07:53:19;13.10;99.90
23120;DHT22;11729;50.836;4.330;2023-11-19T07:55:45;13.00;99.90
23120;DHT22;11729;50.836;4.330;2023-11-19T07:58:11;12.90;99.90
23120;DHT22;11729;50.836;4.330;2023-11-19T08:00:38;13.00;99.90
23120;DHT22;11729;50.836;4.330;2023-11-19T08:03:04;12.90;99.90
23120;DHT22;11729;50.836;4.330;2023-11-19T08:05:30;12.90;99.90
23120;DHT22;11729;50.836;4.330;2023-11-19T08:07:56;13.00;99.90
23120;DHT22;11729;50.836;4.330;2023-11-19T08:10:22;13.00;99.90
23120;DHT22;11729;50.836;4.330;2023-11-19T08:12:48;12.90;99.90
23120;DHT22;11729;50.836;4.330;2023-11-19T08:15:14;12.90;99.90
23120;DHT22;11729;50.836;4.330;2023-11-19T08:17:39;13.00;99.90
23120;DHT22;11729;50.836;4.330;2023-11-19T08:20:06;13.20;99.90
23120;DHT22;11729;50.836;4.330;2023-11-19T08:22:38;13.30;99.90
23120;DHT22;11729;50.836;4.330;2023-11-19T08:25:05;13.30;99.90
23120;DHT22;11729;50.836;4.330;2023-11-19T08:27:31;13.20;99.90
23120;DHT22;11729;50.836;4.330;2023-11-19T08:29:56;13.30;99.90
23120;DHT22;11729;50.836;4.330;2023-11-19T08:32:23;13.50;99.90
23120;DHT22;11729;50.836;4.330;2023-11-19T08:34:49;13.70;99.90
23120;DHT22;11729;50.836;4.330;2023-11-19T08:37:15;13.80;99.90
23120;DHT22;11729;50.836;4.330;2023-11-19T08:39:40;13.70;99.90
23120;DHT22;11729;50.836;4.330;2023-11-19T08:42:07;13.50;99.90
23120;DHT22;11729;50.836;4.330;2023-11-19T08:44:33;13.50;99.90
23120;DHT22;11729;50.836;4.330;2023-11-19T08:46:58;13.30;99.90
23120;DHT22;11729;50.836;4.330;2023-11-19T08:49:24;13.30;99.90
23120;DHT22;11729;50.836;4.330;2023-11-19T08:51:49;13.10;99.90
23120;DHT22;11729;50.836;4.330;2023-11-19T08:54:15;13.10;99.90
23120;DHT22;11729;50.836;4.330;2023-11-19T08:56:41;13.10;99.90
23120;DHT22;11729;50.836;4.330;2023-11-19T08:59:06;13.00;99.90
23120;DHT22;11729;50.836;4.330;2023-11-19T09:01:32;13.00;99.90
23120;DHT22;11729;50.836;4.330;2023-11-19T09:03:58;13.20;99.90
23120;DHT22;11729;50.836;4.330;2023-11-19T09:06:23;13.30;99.90
23120;DHT22;11729;50.836;4.330;2023-11-19T09:08:49;13.30;99.90
23120;DHT22;11729;50.836;4.330;2023-11-19T09:11:15;13.20;99.90
23120;DHT22;11729;50.836;4.330;2023-11-19T09:13:42;13.10;99.90
23120;DHT22;11729;50.836;4.330;2023-11-19T09:16:07;13.20;99.90
23120;DHT22;11729;50.836;4.330;2023-11-19T09:18:35;13.20;99.90
23120;DHT22;11729;50.836;4.330;2023-11-19T09:21:01;13.30;99.90
23120;DHT22;11729;50.836;4.330;2023-11-19T09:23:28;13.40;99.90
23120;DHT22;11729;50.836;4.330;2023-11-19T09:25:56;13.40;99.90
23120;DHT22;11729;50.836;4.330;2023-11-19T09:28:21;13.40;99.90
23120;DHT22;11729;50.836;4.330;2023-11-19T09:30:47;13.60;99.90
23120;DHT22;11729;50.836;4.330;2023-11-19T09:33:13;13.70;99.90
23120;DHT22;11729;50.836;4.330;2023-11-19T09:35:39;13.80;99.90
23120;DHT22;11729;50.836;4.330;2023-11-19T09:38:04;13.80;99.90
23120;DHT22;11729;50.836;4.330;2023-11-19T09:40:31;13.80;99.90
23120;DHT22;11729;50.836;4.330;2023-11-19T09:42:57;13.80;99.90
23120;DHT22;11729;50.836;4.330;2023-11-19T09:45:27;13.80;99.90
23120;DHT22;11729;50.836;4.330;2023-11-19T09:47:53;13.90;99.90
23120;DHT22;11729;50.836;4.330;2023-11-19T09:50:20;13.90;99.90
23120;DHT22;11729;50.836;4.330;2023-11-19T09:52:47;13.90;99.90
23120;DHT22;11729;50.836;4.330;2023-11-19T09:55:13;14.00;99.90
23120;DHT22;11729;50.836;4.330;2023-11-19T09:57:39;14.10;99.90
23120;DHT22;11729;50.836;4.330;2023-11-19T10:00:10;14.20;99.90
23120;DHT22;11729;50.836;4.330;2023-11-19T10:02:36;14.10;99.90
23120;DHT22;11729;50.836;4.330;2023-11-19T10:05:06;14.10;99.90
23120;DHT22;11729;50.836;4.330;2023-11-19T10:07:32;14.20;99.90
23120;DHT22;11729;50.836;4.330;2023-11-19T10:10:02;14.30;99.90
23120;DHT22;11729;50.836;4.330;2023-11-19T10:12:29;14.30;99.90
23120;DHT22;11729;50.836;4.330;2023-11-19T10:14:59;14.30;99.90
23120;DHT22;11729;50.836;4.330;2023-11-19T10:17:34;14.50;99.90
23120;DHT22;11729;50.836;4.330;2023-11-19T10:20:01;14.40;99.90
23120;DHT22;11729;50.836;4.330;2023-11-19T10:22:27;14.50;99.90
23120;DHT22;11729;50.836;4.330;2023-11-19T10:24:53;14.60;99.90
23120;DHT22;11729;50.836;4.330;2023-11-19T10:27:19;14.60;99.90
23120;DHT22;11729;50.836;4.330;2023-11-19T10:29:48;14.80;99.90
23120;DHT22;11729;50.836;4.330;2023-11-19T10:32:14;15.10;99.90
23120;DHT22;11729;50.836;4.330;2023-11-19T10:34:42;15.20;99.90
23120;DHT22;11729;50.836;4.330;2023-11-19T10:37:09;15.20;99.90
23120;DHT22;11729;50.836;4.330;2023-11-19T10:39:54;15.20;99.90
23120;DHT22;11729;50.836;4.330;2023-11-19T10:42:20;15.10;99.90
23120;DHT22;11729;50.836;4.330;2023-11-19T10:44:46;15.10;99.90
23120;DHT22;11729;50.836;4.330;2023-11-19T10:47:13;15.00;99.90
23120;DHT22;11729;50.836;4.330;2023-11-19T10:49:39;14.80;99.90
23120;DHT22;11729;50.836;4.330;2023-11-19T10:52:08;14.90;99.90
23120;DHT22;11729;50.836;4.330;2023-11-19T10:54:34;15.00;99.90
23120;DHT22;11729;50.836;4.330;2023-11-19T10:57:01;15.00;99.90
23120;DHT22;11729;50.836;4.330;2023-11-19T10:59:30;15.10;99.90
23120;DHT22;11729;50.836;4.330;2023-11-19T11:01:55;15.20;99.90
23120;DHT22;11729;50.836;4.330;2023-11-19T11:04:25;15.40;99.90
23120;DHT22;11729;50.836;4.330;2023-11-19T11:06:54;15.40;99.90
23120;DHT22;11729;50.836;4.330;2023-11-19T11:09:21;15.50;99.90
23120;DHT22;11729;50.836;4.330;2023-11-19T11:11:50;15.50;99.90
23120;DHT22;11729;50.836;4.330;2023-11-19T11:14:18;15.50;99.90
23120;DHT22;11729;50.836;4.330;2023-11-19T11:16:46;15.40;99.90
23120;DHT22;11729;50.836;4.330;2023-11-19T11:19:15;15.10;99.90
23120;DHT22;11729;50.836;4.330;2023-11-19T11:21:45;14.90;99.90
23120;DHT22;11729;50.836;4.330;2023-11-19T11:24:33;14.70;99.90
23120;DHT22;11729;50.836;4.330;2023-11-19T11:29:44;14.50;99.90
23120;DHT22;11729;50.836;4.330;2023-11-19T11:32:33;14.50;99.90
23120;DHT22;11729;50.836;4.330;2023-11-19T11:35:30;14.40;99.90
23120;DHT22;11729;50.836;4.330;2023-11-19T11:38:07;14.70;99.90
23120;DHT22;11729;50.836;4.330;2023-11-19T11:40:34;15.00;99.90
23120;DHT22;11729;50.836;4.330;2023-11-19T11:43:01;15.20;99.90
23120;DHT22;11729;50.836;4.330;2023-11-19T11:45:38;15.20;99.90
23120;DHT22;11729;50.836;4.330;2023-11-19T11:50:30;15.30;99.90
23120;DHT22;11729;50.836;4.330;2023-11-19T11:55:26;15.40;99.90
23120;DHT22;11729;50.836;4.330;2023-11-19T11:57:51;15.50;99.90
23120;DHT22;11729;50.836;4.330;2023-11-19T12:00:32;15.80;99.90
23120;DHT22;11729;50.836;4.330;2023-11-19T12:03:05;16.10;99.90
23120;DHT22;11729;50.836;4.330;2023-11-19T12:05:30;16.00;99.90
23120;DHT22;11729;50.836;4.330;2023-11-19T12:08:03;16.00;99.90
23120;DHT22;11729;50.836;4.330;2023-11-19T12:10:31;15.80;99.90
23120;DHT22;11729;50.836;4.330;2023-11-19T12:13:01;15.80;99.90
23120;DHT22;11729;50.836;4.330;2023-11-19T12:15:27;15.70;99.90
23120;DHT22;11729;50.836;4.330;2023-11-19T12:17:54;15.40;99.90
23120;DHT22;11729;50.836;4.330;2023-11-19T12:20:26;15.20;99.90
23120;DHT22;11729;50.836;4.330;2023-11-19T12:22:53;15.10;99.90
23120;DHT22;11729;50.836;4.330;2023-11-19T12:25:19;15.10;99.90
23120;DHT22;11729;50.836;4.330;2023-11-19T12:27:47;14.90;99.90
23120;DHT22;11729;50.836;4.330;2023-11-19T12:30:26;14.60;99.90
23120;DHT22;11729;50.836;4.330;2023-11-19T12:32:52;14.50;99.90
23120;DHT22;11729;50.836;4.330;2023-11-19T12:35:22;14.40;99.90
23120;DHT22;11729;50.836;4.330;2023-11-19T12:37:49;14.30;99.90
23120;DHT22;11729;50.836;4.330;2023-11-19T12:40:24;14.30;99.90
23120;DHT22;11729;50.836;4.330;2023-11-19T12:42:51;14.40;99.90
23120;DHT22;11729;50.836;4.330;2023-11-19T12:45:19;14.40;99.90
23120;DHT22;11729;50.836;4.330;2023-11-19T12:47:46;14.40;99.90
23120;DHT22;11729;50.836;4.330;2023-11-19T12:50:18;14.50;99.90
23120;DHT22;11729;50.836;4.330;2023-11-19T12:52:56;14.60;99.90
23120;DHT22;11729;50.836;4.330;2023-11-19T12:55:28;14.50;99.90
23120;DHT22;11729;50.836;4.330;2023-11-19T12:57:54;14.60;99.90
23120;DHT22;11729;50.836;4.330;2023-11-19T13:00:22;14.70;99.90
23120;DHT22;11729;50.836;4.330;2023-11-19T13:02:56;14.70;99.90
23120;DHT22;11729;50.836;4.330;2023-11-19T13:10:24;14.90;99.90
23120;DHT22;11729;50.836;4.330;2023-11-19T13:13:06;14.90;99.90
23120;DHT22;11729;50.836;4.330;2023-11-19T13:15:34;14.90;99.90
23120;DHT22;11729;50.836;4.330;2023-11-19T13:18:01;14.70;99.90
23120;DHT22;11729;50.836;4.330;2023-11-19T13:20:27;14.70;99.90
23120;DHT22;11729;50.836;4.330;2023-11-19T13:23:01;14.70;99.90
23120;DHT22;11729;50.836;4.330;2023-11-19T13:25:27;14.60;99.90
23120;DHT22;11729;50.836;4.330;2023-11-19T13:27:54;14.50;99.90
23120;DHT22;11729;50.836;4.330;2023-11-19T13:30:20;14.40;99.90
23120;DHT22;11729;50.836;4.330;2023-11-19T13:32:46;14.40;99.90
23120;DHT22;11729;50.836;4.330;2023-11-19T13:35:15;14.30;99.90
23120;DHT22;11729;50.836;4.330;2023-11-19T13:37:41;14.30;99.90
23120;DHT22;11729;50.836;4.330;2023-11-19T13:40:07;14.40;99.90
23120;DHT22;11729;50.836;4.330;2023-11-19T13:42:37;14.50;99.90
23120;DHT22;11729;50.836;4.330;2023-11-19T13:45:10;14.40;99.90
23120;DHT22;11729;50.836;4.330;2023-11-19T13:47:42;14.40;99.90
23120;DHT22;11729;50.836;4.330;2023-11-19T13:50:12;14.50;99.90
23120;DHT22;11729;50.836;4.330;2023-11-19T13:52:39;14.40;99.90
23120;DHT22;11729;50.836;4.330;2023-11-19T13:55:07;14.30;99.90
23120;DHT22;11729;50.836;4.330;2023-11-19T13:57:34;14.10;99.90
23120;DHT22;11729;50.836;4.330;2023-11-19T14:00:01;14.10;99.90
23120;DHT22;11729;50.836;4.330;2023-11-19T14:02:28;14.20;99.90
23120;DHT22;11729;50.836;4.330;2023-11-19T14:04:54;14.10;99.90
23120;DHT22;11729;50.836;4.330;2023-11-19T14:07:20;14.10;99.90
23120;DHT22;11729;50.836;4.330;2023-11-19T14:09:45;14.10;99.90
23120;DHT22;11729;50.836;4.330;2023-11-19T14:12:11;14.10;99.90
23120;DHT22;11729;50.836;4.330;2023-11-19T14:14:38;14.00;99.90
23120;DHT22;11729;50.836;4.330;2023-11-19T14:17:05;14.00;99.90
23120;DHT22;11729;50.836;4.330;2023-11-19T14:19:30;14.00;99.90
23120;DHT22;11729;50.836;4.330;2023-11-19T14:21:56;14.00;99.90
23120;DHT22;11729;50.836;4.330;2023-11-19T14:24:22;14.00;99.90
23120;DHT22;11729;50.836;4.330;2023-11-19T14:26:48;13.90;99.90
23120;DHT22;11729;50.836;4.330;2023-11-19T14:29:15;13.90;99.90
23120;DHT22;11729;50.836;4.330;2023-11-19T14:31:41;13.70;99.90
23120;DHT22;11729;50.836;4.330;2023-11-19T14:34:06;13.50;99.90
23120;DHT22;11729;50.836;4.330;2023-11-19T14:36:32;13.40;99.90
23120;DHT22;11729;50.836;4.330;2023-11-19T14:38:58;13.10;99.90
23120;DHT22;11729;50.836;4.330;2023-11-19T14:41:27;13.00;99.90
23120;DHT22;11729;50.836;4.330;2023-11-19T14:43:52;12.90;99.90
23120;DHT22;11729;50.836;4.330;2023-11-19T14:46:18;12.90;99.90
23120;DHT22;11729;50.836;4.330;2023-11-19T14:48:44;13.00;99.90
23120;DHT22;11729;50.836;4.330;2023-11-19T14:51:09;13.00;99.90
23120;DHT22;11729;50.836;4.330;2023-11-19T14:53:35;13.10;99.90
23120;DHT22;11729;50.836;4.330;2023-11-19T14:56:01;13.00;99.90
23120;DHT22;11729;50.836;4.330;2023-11-19T14:58:27;13.10;99.90
23120;DHT22;11729;50.836;4.330;2023-11-19T15:00:53;13.10;99.90
23120;DHT22;11729;50.836;4.330;2023-11-19T15:03:19;13.10;99.90
23120;DHT22;11729;50.836;4.330;2023-11-19T15:05:48;13.10;99.90
23120;DHT22;11729;50.836;4.330;2023-11-19T15:08:14;13.10;99.90
23120;DHT22;11729;50.836;4.330;2023-11-19T15:10:42;13.10;99.90
23120;DHT22;11729;50.836;4.330;2023-11-19T15:13:10;13.20;99.90
23120;DHT22;11729;50.836;4.330;2023-11-19T15:15:35;13.30;99.90
23120;DHT22;11729;50.836;4.330;2023-11-19T15:18:01;13.30;99.90
23120;DHT22;11729;50.836;4.330;2023-11-19T15:20:27;13.20;99.90
23120;DHT22;11729;50.836;4.330;2023-11-19T15:22:57;13.20;99.90
23120;DHT22;11729;50.836;4.330;2023-11-19T15:25:23;13.10;99.90
23120;DHT22;11729;50.836;4.330;2023-11-19T15:27:49;13.20;99.90
23120;DHT22;11729;50.836;4.330;2023-11-19T15:30:15;13.20;99.90
23120;DHT22;11729;50.836;4.330;2023-11-19T15:32:43;13.20;99.90
23120;DHT22;11729;50.836;4.330;2023-11-19T15:35:09;13.20;99.90
23120;DHT22;11729;50.836;4.330;2023-11-19T15:37:37;13.30;99.90
23120;DHT22;11729;50.836;4.330;2023-11-19T15:40:09;13.30;99.90
23120;DHT22;11729;50.836;4.330;2023-11-19T15:42:35;13.40;99.90
23120;DHT22;11729;50.836;4.330;2023-11-19T15:45:01;13.40;99.90